Terminal Aerodrome Forecast
Issued by NWS

Current Version | Previous Version | Text Only | Print | Product List | Glossary On
Versions: 1 2 3 4 5 6 7 8 9 10 11 12 13 14 15 16 17 18 19 20 21 22 23 24 25 26 27 28 29
000
FTUS45 KGJT 180253 AAA
TAFMTJ
TAF AMD
KMTJ 180253Z 1803/1824 15003KT P6SM VCSH BKN004 OVC035
      TEMPO 1803/1807 SCT004 BKN015
     FM180700 15004KT P6SM BKN003 OVC007
     FM181700 35003KT P6SM FEW007 SCT025 BKN060=

USA.gov is the U.S. government's official web portal to all federal, state and local government web resources and services.